Time;durP1;ratioP1;P1;durP2;ratioP2;P2;SDS_P1;SDS_P2;PMS_P1;PMS_P2;Temp;Humidity;BMP_temperature;BMP_pressure;BME280_temperature;BME280_humidity;BME280_pressure;Samples;Min_cycle;Max_cycle;Signal;HPM_P1;HPM_P2
2022/09/28 00:00:06;;;;;;;;;;;;;;;20.70;58.58;97472.00;2074600;28;19951;-47
2022/09/28 00:01:07;;;;;;;;;;;;;;;20.72;58.86;97469.03;2074732;28;19963;-48
2022/09/28 00:02:08;;;;;;;;;;;;;;;20.71;59.08;97470.91;2073427;28;20012;-49
2022/09/28 00:03:09;;;;;;;;;;;;;;;20.70;58.86;97466.59;2072991;28;19990;-48
2022/09/28 00:04:11;;;;;;;;;;;;;;;20.70;58.90;97472.00;2073096;28;19959;-48
2022/09/28 00:05:11;;;;;;;;;;;;;;;20.70;59.05;97472.00;2080565;28;19924;-48
2022/09/28 00:06:15;;;;;;;;;;;;;;;20.70;58.95;97472.00;2075532;28;20648;-48
2022/09/28 00:07:16;;;;;;;;;;;;;;;20.71;58.83;97475.50;2077971;28;19932;-50
2022/09/28 00:08:17;;;;;;;;;;;;;;;20.70;59.00;97471.19;2075011;28;19929;-51
2022/09/28 00:09:18;;;;;;;;;;;;;;;20.69;58.88;97475.72;2077836;28;19928;-49
2022/09/28 00:10:21;;;;;;;;;;;;;;;20.71;58.68;97478.19;2074874;28;20160;-49
2022/09/28 00:11:22;;;;;;;;;;;;;;;20.71;58.69;97470.09;2075093;28;19976;-53
2022/09/28 00:12:24;;;;;;;;;;;;;;;20.72;58.85;97474.44;2069825;28;19928;-48
2022/09/28 00:13:24;;;;;;;;;;;;;;;20.70;58.65;97469.28;2072247;28;19924;-49
2022/09/28 00:14:26;;;;;;;;;;;;;;;20.70;58.85;97466.59;2074070;28;20424;-49
2022/09/28 00:15:26;;;;;;;;;;;;;;;20.70;58.97;97466.59;2071202;28;19964;-49
2022/09/28 00:16:29;;;;;;;;;;;;;;;20.69;58.94;97470.34;2072788;28;19921;-49
2022/09/28 00:17:30;;;;;;;;;;;;;;;20.70;58.96;97463.09;2073216;28;19928;-49
2022/09/28 00:18:32;;;;;;;;;;;;;;;20.69;58.96;97462.25;2072591;28;20603;-48
2022/09/28 00:19:32;;;;;;;;;;;;;;;20.70;58.92;97469.28;2072847;28;20575;-52
2022/09/28 00:20:34;;;;;;;;;;;;;;;20.70;58.71;97472.00;2073002;28;19921;-48
2022/09/28 00:21:37;;;;;;;;;;;;;;;20.69;58.92;97462.25;2069829;28;19974;-47
2022/09/28 00:22:39;;;;;;;;;;;;;;;20.68;58.91;97463.31;2074411;28;20387;-46
2022/09/28 00:24:56;;;;;;;;;;;;;;;20.70;58.97;97466.59;2073123;28;20525;-48
2022/09/28 00:26:00;;;;;;;;;;;;;;;20.70;58.76;97469.28;2071549;28;19925;-50
2022/09/28 00:27:03;;;;;;;;;;;;;;;20.69;58.85;97467.66;2069756;28;19924;-46
2022/09/28 00:28:04;;;;;;;;;;;;;;;20.69;58.86;97464.13;2074323;28;19928;-48
2022/09/28 00:29:05;;;;;;;;;;;;;;;20.69;58.78;97466.84;2073322;28;19928;-47
2022/09/28 00:30:06;;;;;;;;;;;;;;;20.70;58.90;97463.09;2074465;28;20437;-48
2022/09/28 00:31:08;;;;;;;;;;;;;;;20.69;58.82;97464.94;2071887;28;19933;-47
2022/09/28 00:32:09;;;;;;;;;;;;;;;20.69;58.65;97466.84;2071701;28;19925;-47
2022/09/28 00:33:10;;;;;;;;;;;;;;;20.68;58.67;97463.31;2074205;28;19921;-50
2022/09/28 00:34:12;;;;;;;;;;;;;;;20.69;59.03;97464.13;2073144;28;19928;-49
2022/09/28 00:35:13;;;;;;;;;;;;;;;20.68;58.65;97463.31;2072120;28;20437;-48
2022/09/28 00:36:14;;;;;;;;;;;;;;;20.68;58.71;97454.44;2071947;28;20929;-49
2022/09/28 00:37:18;;;;;;;;;;;;;;;20.68;58.87;97457.94;2074138;28;19925;-47
2022/09/28 00:38:19;;;;;;;;;;;;;;;20.68;58.82;97452.56;2073837;28;19928;-48
2022/09/28 00:39:20;;;;;;;;;;;;;;;20.68;58.60;97452.56;2071520;28;19929;-49
2022/09/28 00:40:21;;;;;;;;;;;;;;;20.68;58.95;97457.13;2074265;28;19960;-49
2022/09/28 00:41:23;;;;;;;;;;;;;;;20.68;58.71;97452.56;2071713;28;19928;-46
2022/09/28 00:42:25;;;;;;;;;;;;;;;20.68;58.54;97457.94;2073858;28;19924;-46
2022/09/28 00:43:26;;;;;;;;;;;;;;;20.68;58.73;97455.25;2075156;28;19973;-49
2022/09/28 00:44:38;;;;;;;;;;;;;;;20.67;58.68;97456.31;2063869;28;19935;-49
2022/09/28 00:45:39;;;;;;;;;;;;;;;20.67;58.43;97453.63;2073334;28;25219;-47
2022/09/28 00:46:41;;;;;;;;;;;;;;;20.67;58.71;97456.31;2073163;28;19929;-50
2022/09/28 00:47:48;;;;;;;;;;;;;;;20.67;58.75;97447.41;2075594;28;20535;-50
2022/09/28 00:48:51;;;;;;;;;;;;;;;20.66;58.49;97449.28;2073201;28;19976;-50
2022/09/28 00:49:55;;;;;;;;;;;;;;;20.66;58.55;97448.47;2074607;28;19934;-47
2022/09/28 00:50:56;;;;;;;;;;;;;;;20.66;58.71;97448.47;2072398;28;19925;-47
2022/09/28 00:51:57;;;;;;;;;;;;;;;20.66;58.69;97449.28;2075456;28;20015;-48
2022/09/28 00:53:03;;;;;;;;;;;;;;;20.66;58.43;97443.88;2073411;28;19932;-46
2022/09/28 00:54:04;;;;;;;;;;;;;;;20.67;58.82;97448.22;2077366;28;22557;-49
2022/09/28 00:55:08;;;;;;;;;;;;;;;20.66;58.70;97440.38;2075261;28;19925;-50
2022/09/28 00:56:11;;;;;;;;;;;;;;;20.66;58.42;97449.28;2077989;28;19955;-48
2022/09/28 00:57:13;;;;;;;;;;;;;;;20.66;58.84;97449.28;2074594;28;20042;-52
2022/09/28 00:58:16;;;;;;;;;;;;;;;20.66;58.36;97437.69;2075454;28;19924;-48
2022/09/28 00:59:18;;;;;;;;;;;;;;;20.67;58.72;97450.09;2075175;28;19931;-48
2022/09/28 01:00:18;;;;;;;;;;;;;;;20.66;58.61;97448.47;2076112;28;19924;-49
2022/09/28 01:01:20;;;;;;;;;;;;;;;20.65;58.36;97453.03;2073908;28;19924;-46
2022/09/28 01:02:21;;;;;;;;;;;;;;;20.66;58.43;97443.88;2076633;28;20402;-48
2022/09/28 01:03:22;;;;;;;;;;;;;;;20.66;58.48;97443.06;2072528;28;19935;-49
2022/09/28 01:04:23;;;;;;;;;;;;;;;20.67;58.71;97445.53;2072819;28;20518;-49
2022/09/28 01:05:25;;;;;;;;;;;;;;;20.65;58.68;97436.88;2074017;28;19921;-48
2022/09/28 01:06:27;;;;;;;;;;;;;;;20.66;58.71;97435.00;2077117;28;19931;-48
2022/09/28 01:07:29;;;;;;;;;;;;;;;20.65;58.73;97434.19;2074731;28;19944;-47
2022/09/28 01:08:32;;;;;;;;;;;;;;;20.65;58.58;97431.50;2075038;28;20008;-49
2022/09/28 01:09:35;;;;;;;;;;;;;;;20.65;58.51;97431.50;2073399;28;20044;-49
2022/09/28 01:10:38;;;;;;;;;;;;;;;20.65;58.61;97433.38;2075253;28;19928;-50
2022/09/28 01:11:39;;;;;;;;;;;;;;;20.65;58.43;97430.69;2078024;28;19921;-48
2022/09/28 01:12:40;;;;;;;;;;;;;;;20.65;58.55;97434.19;2072384;28;19966;-47
2022/09/28 01:13:42;;;;;;;;;;;;;;;20.65;58.46;97433.38;2075558;28;19928;-48
2022/09/28 01:14:44;;;;;;;;;;;;;;;20.65;58.49;97436.88;2075157;28;20311;-51
2022/09/28 01:15:48;;;;;;;;;;;;;;;20.64;58.39;97440.63;2072209;28;19927;-54
2022/09/28 01:16:55;;;;;;;;;;;;;;;20.64;58.47;97440.63;2075765;28;20506;-53
2022/09/28 01:18:01;;;;;;;;;;;;;;;20.65;58.40;97444.16;2065254;28;21198;-49
2022/09/28 01:19:12;;;;;;;;;;;;;;;20.64;58.51;97443.31;2075237;28;19929;-52
2022/09/28 01:20:41;;;;;;;;;;;;;;;20.63;58.53;97449.78;2075674;28;20298;-51
2022/09/28 01:21:48;;;;;;;;;;;;;;;20.63;58.76;97444.38;2055493;28;19925;-53
2022/09/28 01:23:11;;;;;;;;;;;;;;;20.65;58.63;97436.06;2070451;28;20003;-53
2022/09/28 01:24:26;;;;;;;;;;;;;;;20.64;58.35;97440.63;2076126;28;19952;-51
2022/09/28 01:25:36;;;;;;;;;;;;;;;20.64;58.61;97437.09;2076616;28;20355;-47
2022/09/28 01:26:51;;;;;;;;;;;;;;;20.64;58.69;97446.00;2074716;28;20135;-51
2022/09/28 01:27:57;;;;;;;;;;;;;;;20.63;58.55;97436.31;2075636;28;19929;-49
2022/09/28 01:29:01;;;;;;;;;;;;;;;20.64;58.77;97445.19;2075541;28;19936;-49
2022/09/28 01:30:05;;;;;;;;;;;;;;;20.63;58.64;97441.69;2073629;28;19932;-46
2022/09/28 01:31:08;;;;;;;;;;;;;;;20.63;58.45;97440.88;2075362;28;19929;-49
2022/09/28 01:32:14;;;;;;;;;;;;;;;20.63;58.68;97443.56;2073869;28;19983;-48
2022/09/28 01:33:19;;;;;;;;;;;;;;;20.63;58.71;97443.56;2075170;28;19967;-48
2022/09/28 01:34:25;;;;;;;;;;;;;;;20.63;58.50;97440.88;2076183;28;19924;-47
2022/09/28 01:35:28;;;;;;;;;;;;;;;20.62;58.75;97442.75;2079008;28;19925;-49
2022/09/28 01:36:33;;;;;;;;;;;;;;;20.62;58.64;97440.06;2083020;28;19955;-46
2022/09/28 01:37:37;;;;;;;;;;;;;;;20.63;58.66;97443.56;2078303;28;20425;-48
2022/09/28 01:38:42;;;;;;;;;;;;;;;20.62;58.37;97441.94;2074576;28;19924;-47
2022/09/28 01:39:45;;;;;;;;;;;;;;;20.61;58.64;97448.38;2078539;28;19981;-47
2022/09/28 01:40:48;;;;;;;;;;;;;;;20.63;58.48;97446.25;2076877;28;19925;-48
2022/09/28 01:41:50;;;;;;;;;;;;;;;20.62;58.55;97445.47;2076962;28;20010;-48
2022/09/28 01:42:54;;;;;;;;;;;;;;;20.62;58.54;97448.16;2084889;28;19947;-47
2022/09/28 01:44:01;;;;;;;;;;;;;;;20.63;58.68;97444.38;2080165;28;19932;-47
2022/09/28 01:45:05;;;;;;;;;;;;;;;20.62;58.77;97442.75;2075443;28;19996;-49
2022/09/28 01:46:10;;;;;;;;;;;;;;;20.63;58.60;97446.25;2076645;28;20333;-47
2022/09/28 01:47:13;;;;;;;;;;;;;;;20.62;58.82;97442.75;2076553;28;20274;-50
2022/09/28 01:48:18;;;;;;;;;;;;;;;20.61;58.62;97438.41;2075883;28;19932;-45
2022/09/28 01:49:21;;;;;;;;;;;;;;;20.61;58.54;97443.81;2074592;28;19929;-49
2022/09/28 01:50:24;;;;;;;;;;;;;;;20.62;58.42;97447.34;2075864;28;19971;-48
2022/09/28 01:51:29;;;;;;;;;;;;;;;20.60;58.30;97444.88;2075419;28;19978;-48
2022/09/28 01:52:34;;;;;;;;;;;;;;;20.61;58.40;97446.50;2075726;28;19921;-50
2022/09/28 01:53:38;;;;;;;;;;;;;;;20.60;58.42;97444.88;2075566;28;19932;-48
2022/09/28 01:54:42;;;;;;;;;;;;;;;20.61;58.40;97443.00;2072680;28;20022;-48
2022/09/28 01:55:44;;;;;;;;;;;;;;;20.61;58.50;97451.88;2073345;28;20599;-47
2022/09/28 01:56:48;;;;;;;;;;;;;;;20.61;58.72;97443.81;2070349;28;19944;-48
2022/09/28 01:57:51;;;;;;;;;;;;;;;20.61;58.69;97441.09;2075832;28;19924;-48
2022/09/28 01:58:55;;;;;;;;;;;;;;;20.60;58.59;97436.00;2073911;28;19936;-48
2022/09/28 02:00:00;;;;;;;;;;;;;;;20.61;58.46;97440.31;2072727;28;19925;-48
2022/09/28 02:01:04;;;;;;;;;;;;;;;20.61;58.70;97441.09;2073944;28;20405;-48
2022/09/28 02:02:06;;;;;;;;;;;;;;;20.61;58.56;97438.41;2073357;28;20848;-52
2022/09/28 02:03:09;;;;;;;;;;;;;;;20.60;58.31;97438.69;2073713;28;19955;-50
2022/09/28 02:04:12;;;;;;;;;;;;;;;20.59;58.72;97448.66;2073214;28;19925;-49
2022/09/28 02:05:16;;;;;;;;;;;;;;;20.60;58.54;97444.88;2074944;28;19925;-56
2022/09/28 02:06:20;;;;;;;;;;;;;;;20.61;58.70;97451.88;2073865;28;19932;-47
2022/09/28 02:07:24;;;;;;;;;;;;;;;20.60;58.51;97449.47;2072721;28;19933;-48
2022/09/28 02:08:28;;;;;;;;;;;;;;;20.60;58.46;97452.16;2074045;28;20048;-47
2022/09/28 02:09:34;;;;;;;;;;;;;;;20.61;58.64;97456.47;2071129;28;19929;-48
2022/09/28 02:10:38;;;;;;;;;;;;;;;20.60;58.33;97455.66;2071497;28;20537;-46
2022/09/28 02:11:43;;;;;;;;;;;;;;;20.59;58.53;97453.19;2073787;28;19925;-51
2022/09/28 02:12:45;;;;;;;;;;;;;;;20.61;58.63;97457.28;2071362;28;19932;-46
2022/09/28 02:13:49;;;;;;;;;;;;;;;20.61;58.39;97454.59;2074607;28;19928;-46
2022/09/28 02:14:53;;;;;;;;;;;;;;;20.60;58.48;97454.84;2072364;28;20004;-48
2022/09/28 02:15:59;;;;;;;;;;;;;;;20.59;58.62;97454.03;2072261;28;19983;-47
2022/09/28 02:17:00;;;;;;;;;;;;;;;20.59;58.63;97456.72;2073765;28;20065;-48
2022/09/28 02:18:02;;;;;;;;;;;;;;;20.58;58.33;97449.69;2071625;28;19932;-48
2022/09/28 02:19:03;;;;;;;;;;;;;;;20.58;58.65;97449.69;2073295;28;20003;-49
2022/09/28 02:20:06;;;;;;;;;;;;;;;20.58;58.66;97451.56;2072725;28;20066;-48
2022/09/28 02:21:09;;;;;;;;;;;;;;;20.58;58.57;97454.25;2074918;28;19921;-46
2022/09/28 02:22:16;;;;;;;;;;;;;;;20.58;58.31;97465.84;2073062;28;19926;-47
2022/09/28 02:23:18;;;;;;;;;;;;;;;20.58;58.41;97457.75;2073154;28;19936;-48
2022/09/28 02:24:23;;;;;;;;;;;;;;;20.57;58.37;97449.94;2072509;28;20715;-46
2022/09/28 02:25:27;;;;;;;;;;;;;;;20.56;58.52;97442.91;2075477;28;19929;-47
2022/09/28 02:26:30;;;;;;;;;;;;;;;20.57;58.37;97445.38;2070329;28;19925;-50
2022/09/28 02:27:33;;;;;;;;;;;;;;;20.57;58.53;97448.06;2072801;28;19951;-48
2022/09/28 02:28:34;;;;;;;;;;;;;;;20.57;58.58;97445.38;2075343;28;19925;-51
2022/09/28 02:29:35;;;;;;;;;;;;;;;20.57;58.63;97448.06;2075480;28;19929;-53
2022/09/28 02:30:38;;;;;;;;;;;;;;;20.56;58.74;97438.34;2072129;28;19925;-51
2022/09/28 02:31:40;;;;;;;;;;;;;;;20.56;58.61;97443.75;2071819;28;19940;-48
2022/09/28 02:32:44;;;;;;;;;;;;;;;20.57;58.33;97444.56;2072814;28;20409;-49
2022/09/28 02:33:45;;;;;;;;;;;;;;;20.56;58.57;97438.34;2071781;28;19932;-50
2022/09/28 02:34:47;;;;;;;;;;;;;;;20.57;58.50;97439.97;2073898;28;19937;-49
2022/09/28 02:35:47;;;;;;;;;;;;;;;20.57;58.49;97439.16;2075497;28;19924;-49
2022/09/28 02:36:49;;;;;;;;;;;;;;;20.56;58.62;97438.34;2073625;28;20678;-48
2022/09/28 02:37:50;;;;;;;;;;;;;;;20.56;58.61;97445.59;2073868;28;19925;-46
2022/09/28 02:38:51;;;;;;;;;;;;;;;20.54;58.53;97445.88;2072104;28;19931;-47
2022/09/28 02:39:52;;;;;;;;;;;;;;;20.55;58.61;97444.78;2071112;28;20018;-48
2022/09/28 02:40:59;;;;;;;;;;;;;;;20.56;58.60;97441.06;2071975;28;20812;-49
2022/09/28 02:42:06;;;;;;;;;;;;;;;20.57;58.38;97449.94;2073486;28;19979;-47
2022/09/28 02:43:14;;;;;;;;;;;;;;;20.56;58.61;97448.28;2072082;28;19925;-49
2022/09/28 02:44:22;;;;;;;;;;;;;;;20.55;58.50;97444.78;2072276;28;19978;-48
2022/09/28 02:45:29;;;;;;;;;;;;;;;20.56;58.53;97442.91;2074137;28;19925;-49
2022/09/28 02:46:31;;;;;;;;;;;;;;;20.55;58.25;97444.78;2074235;28;19978;-50
2022/09/28 02:47:42;;;;;;;;;;;;;;;20.56;58.41;97443.75;2072929;28;22144;-49
2022/09/28 02:48:51;;;;;;;;;;;;;;;20.55;58.28;97442.09;2077630;28;19993;-49
2022/09/28 02:49:57;;;;;;;;;;;;;;;20.55;58.63;97442.09;2071162;28;19971;-48
2022/09/28 02:51:02;;;;;;;;;;;;;;;20.56;58.53;97442.91;2071243;28;19932;-49
2022/09/28 02:52:19;;;;;;;;;;;;;;;20.55;58.27;97436.72;2076165;28;20359;-46
2022/09/28 02:53:34;;;;;;;;;;;;;;;20.54;58.34;97435.09;2081900;28;19931;-49
2022/09/28 02:54:47;;;;;;;;;;;;;;;20.53;58.63;97436.97;2060663;28;20015;-49
2022/09/28 02:55:54;;;;;;;;;;;;;;;20.55;58.26;97435.91;2074251;28;19932;-49
2022/09/28 02:57:03;;;;;;;;;;;;;;;20.54;58.36;97437.78;2074600;28;19991;-49
2022/09/28 02:58:15;;;;;;;;;;;;;;;20.54;58.50;97432.41;2076116;28;19978;-46
2022/09/28 02:59:23;;;;;;;;;;;;;;;20.55;58.22;97433.19;2071491;28;19925;-49
2022/09/28 03:00:25;;;;;;;;;;;;;;;20.55;58.27;97439.41;2073677;28;19927;-46
2022/09/28 03:01:31;;;;;;;;;;;;;;;20.54;58.42;97427.00;2076803;28;19939;-49
2022/09/28 03:02:36;;;;;;;;;;;;;;;20.55;58.29;97425.94;2075163;28;19928;-47
2022/09/28 03:03:44;;;;;;;;;;;;;;;20.54;58.20;97424.31;2074039;28;19921;-48
2022/09/28 03:04:51;;;;;;;;;;;;;;;20.53;58.60;97428.03;2071745;28;20568;-49
2022/09/28 03:05:59;;;;;;;;;;;;;;;20.54;58.39;97427.00;2071388;28;20355;-50
2022/09/28 03:07:00;;;;;;;;;;;;;;;20.53;58.22;97433.44;2072045;28;20271;-48
2022/09/28 03:08:03;;;;;;;;;;;;;;;20.52;58.39;97440.69;2073393;28;20455;-47
2022/09/28 03:09:07;;;;;;;;;;;;;;;20.54;58.21;97435.09;2072274;28;20627;-48
2022/09/28 03:10:13;;;;;;;;;;;;;;;20.51;58.56;97424.78;2073051;28;20508;-48
2022/09/28 03:11:17;;;;;;;;;;;;;;;20.53;58.41;97425.34;2071677;28;20514;-48
2022/09/28 03:12:19;;;;;;;;;;;;;;;20.53;58.43;97423.50;2073534;28;19978;-52
2022/09/28 03:13:20;;;;;;;;;;;;;;;20.53;58.40;97422.66;2076943;28;20027;-51
2022/09/28 03:14:22;;;;;;;;;;;;;;;20.54;58.28;97429.69;2074392;28;19925;-51
2022/09/28 03:15:24;;;;;;;;;;;;;;;20.53;58.20;97430.75;2075211;28;19936;-48
2022/09/28 03:16:27;;;;;;;;;;;;;;;20.52;58.57;97427.22;2072415;28;20012;-49
2022/09/28 03:17:28;;;;;;;;;;;;;;;20.52;58.30;97423.69;2072708;28;22108;-53
2022/09/28 03:18:29;;;;;;;;;;;;;;;20.53;58.60;97422.66;2073766;28;19935;-50
2022/09/28 03:19:33;;;;;;;;;;;;;;;20.53;58.19;97428.03;2071687;28;20421;-52
2022/09/28 03:20:34;;;;;;;;;;;;;;;20.52;58.53;97429.91;2072205;28;19960;-51
2022/09/28 03:21:35;;;;;;;;;;;;;;;20.52;58.27;97432.59;2075692;28;19944;-47
2022/09/28 03:22:36;;;;;;;;;;;;;;;20.52;58.41;97426.41;2072568;28;20289;-53
2022/09/28 03:23:37;;;;;;;;;;;;;;;20.51;58.25;97425.59;2072734;28;19976;-49
2022/09/28 03:24:38;;;;;;;;;;;;;;;20.50;58.75;97434.75;2072909;28;20311;-49
2022/09/28 03:25:39;;;;;;;;;;;;;;;20.51;58.35;97427.47;2072394;28;19925;-53
2022/09/28 03:26:41;;;;;;;;;;;;;;;20.52;58.65;97435.28;2072320;28;19971;-51
2022/09/28 03:27:42;;;;;;;;;;;;;;;20.50;58.47;97429.34;2072877;28;20575;-52
2022/09/28 03:28:43;;;;;;;;;;;;;;;20.52;58.40;97429.09;2071922;28;19979;-52
2022/09/28 03:29:44;;;;;;;;;;;;;;;20.52;58.28;97429.91;2075306;28;19921;-49
2022/09/28 03:30:45;;;;;;;;;;;;;;;20.52;58.55;97432.59;2073555;28;19924;-49
2022/09/28 03:31:46;;;;;;;;;;;;;;;20.53;58.47;97433.44;2070800;28;20471;-53
2022/09/28 03:32:48;;;;;;;;;;;;;;;20.52;58.25;97429.91;2073162;28;19959;-49
2022/09/28 03:33:49;;;;;;;;;;;;;;;20.51;58.47;97432.84;2076607;28;19982;-49
2022/09/28 03:34:52;;;;;;;;;;;;;;;20.51;58.50;97435.56;2078755;28;20260;-50
2022/09/28 03:35:53;;;;;;;;;;;;;;;20.50;58.60;97437.44;2078466;28;20364;-48
2022/09/28 03:36:54;;;;;;;;;;;;;;;20.49;58.52;97432.28;2072742;28;19970;-48
2022/09/28 03:37:55;;;;;;;;;;;;;;;20.51;58.43;97439.06;2072976;28;20547;-49
2022/09/28 03:38:58;;;;;;;;;;;;;;;20.51;58.30;97439.06;2073268;28;19921;-47
2022/09/28 03:39:58;;;;;;;;;;;;;;;20.51;58.36;97444.44;2071240;28;20039;-49
2022/09/28 03:41:00;;;;;;;;;;;;;;;20.50;58.35;97440.13;2074136;28;20570;-47
2022/09/28 03:42:01;;;;;;;;;;;;;;;20.50;58.42;97437.44;2072797;28;20343;-48
2022/09/28 03:43:02;;;;;;;;;;;;;;;20.51;58.36;97436.34;2074422;28;19933;-46
2022/09/28 03:44:03;;;;;;;;;;;;;;;20.50;58.47;97440.13;2060370;28;19940;-50
2022/09/28 03:45:05;;;;;;;;;;;;;;;20.49;58.46;97438.47;2072314;28;19968;-49
2022/09/28 03:46:05;;;;;;;;;;;;;;;20.50;58.36;97444.66;2072319;28;19967;-47
2022/09/28 03:47:08;;;;;;;;;;;;;;;20.50;58.27;97441.97;2072031;28;19983;-49
2022/09/28 03:48:08;;;;;;;;;;;;;;;20.49;58.27;97432.28;2071966;28;19935;-45
2022/09/28 03:49:10;;;;;;;;;;;;;;;20.50;58.35;97440.13;2071850;28;21977;-48
2022/09/28 03:50:12;;;;;;;;;;;;;;;20.49;58.20;97437.66;2070963;28;19925;-46
2022/09/28 03:51:14;;;;;;;;;;;;;;;20.49;58.19;97435.78;2075007;28;20015;-48
2022/09/28 03:52:14;;;;;;;;;;;;;;;20.48;58.34;97446.81;2078235;28;19921;-48
2022/09/28 03:53:16;;;;;;;;;;;;;;;20.49;58.23;97440.34;2079051;28;20024;-49
2022/09/28 03:54:17;;;;;;;;;;;;;;;20.47;58.63;97437.09;2079438;28;20447;-48
2022/09/28 03:55:18;;;;;;;;;;;;;;;20.49;58.43;97432.28;2080084;28;19920;-49
2022/09/28 03:56:19;;;;;;;;;;;;;;;20.47;58.35;97427.13;2077325;28;19936;-47
2022/09/28 03:57:20;;;;;;;;;;;;;;;20.48;58.54;97436.84;2079951;28;19921;-49
2022/09/28 03:58:21;;;;;;;;;;;;;;;20.49;58.40;97432.28;2078219;28;19924;-47
2022/09/28 03:59:23;;;;;;;;;;;;;;;20.49;58.47;97435.78;2077657;28;20295;-48
2022/09/28 04:00:23;;;;;;;;;;;;;;;20.48;58.45;97442.25;2078079;28;19929;-50
2022/09/28 04:01:25;;;;;;;;;;;;;;;20.49;58.23;97437.66;2079779;28;19921;-46
2022/09/28 04:02:25;;;;;;;;;;;;;;;20.49;58.42;97438.47;2079241;28;19940;-47
2022/09/28 04:03:27;;;;;;;;;;;;;;;20.49;58.27;97438.47;2079113;28;20346;-48
2022/09/28 04:04:27;;;;;;;;;;;;;;;20.49;58.13;97435.78;2077501;28;19928;-50
2022/09/28 04:05:30;;;;;;;;;;;;;;;20.49;58.49;97434.97;2080359;28;19925;-47
2022/09/28 04:06:31;;;;;;;;;;;;;;;20.49;58.40;97434.97;2080383;28;20705;-49
2022/09/28 04:07:32;;;;;;;;;;;;;;;20.49;58.43;97438.47;2079262;28;19925;-48
2022/09/28 04:08:33;;;;;;;;;;;;;;;20.48;58.16;97433.34;2070907;28;20334;-49
2022/09/28 04:09:34;;;;;;;;;;;;;;;20.47;58.42;97437.91;2075168;28;19925;-48
2022/09/28 04:10:35;;;;;;;;;;;;;;;20.47;58.58;97437.91;2077021;28;19978;-47
2022/09/28 04:11:36;;;;;;;;;;;;;;;20.48;58.23;97436.03;2078398;28;19929;-47
2022/09/28 04:12:37;;;;;;;;;;;;;;;20.48;58.36;97442.25;2079046;28;19966;-49
2022/09/28 04:13:38;;;;;;;;;;;;;;;20.47;58.33;97437.91;2081881;28;19933;-49
2022/09/28 04:14:39;;;;;;;;;;;;;;;20.49;58.42;97440.34;2076387;28;20095;-49
2022/09/28 04:15:40;;;;;;;;;;;;;;;20.49;58.13;97437.66;2079448;28;19989;-50
2022/09/28 04:16:41;;;;;;;;;;;;;;;20.48;58.24;97439.53;2080959;28;19932;-49
2022/09/28 04:17:43;;;;;;;;;;;;;;;20.48;58.33;97436.03;2080118;28;19957;-49
2022/09/28 04:18:44;;;;;;;;;;;;;;;20.48;58.29;97434.16;2079810;28;20571;-49
2022/09/28 04:19:46;;;;;;;;;;;;;;;20.48;58.28;97428.78;2071077;28;19932;-47
2022/09/28 04:20:56;;;;;;;;;;;;;;;20.47;58.20;97440.59;2078921;28;19928;-48
2022/09/28 04:21:58;;;;;;;;;;;;;;;20.47;58.11;97439.78;2077955;28;20522;-49
2022/09/28 04:22:58;;;;;;;;;;;;;;;20.46;58.50;97438.16;2074813;28;21630;-49
2022/09/28 04:24:00;;;;;;;;;;;;;;;20.46;58.19;97441.66;2074315;28;19932;-50
2022/09/28 04:25:00;;;;;;;;;;;;;;;20.47;58.42;97434.38;2073701;28;19921;-48
2022/09/28 04:26:02;;;;;;;;;;;;;;;20.46;58.50;97438.97;2074030;28;19932;-48
2022/09/28 04:29:49;;;;;;;;;;;;;;;20.47;58.22;97434.38;2072915;28;21127;-51
2022/09/28 04:30:50;;;;;;;;;;;;;;;20.47;58.14;97429.00;2075055;28;19928;-49
2022/09/28 04:31:53;;;;;;;;;;;;;;;20.46;58.20;97428.19;2076969;28;20316;-50
2022/09/28 04:32:54;;;;;;;;;;;;;;;20.46;58.11;97428.19;2074711;28;20577;-48
2022/09/28 04:33:56;;;;;;;;;;;;;;;20.45;58.11;97423.88;2076646;28;19928;-50
2022/09/28 04:34:57;;;;;;;;;;;;;;;20.45;58.14;97431.97;2075491;28;20861;-47
2022/09/28 04:36:00;;;;;;;;;;;;;;;20.45;58.54;97436.53;2076427;28;19928;-49
2022/09/28 04:37:00;;;;;;;;;;;;;;;20.44;58.11;97430.31;2074349;28;19925;-51
2022/09/28 04:38:02;;;;;;;;;;;;;;;20.47;58.13;97434.38;2076166;28;19925;-48
2022/09/28 04:39:02;;;;;;;;;;;;;;;20.46;58.41;97424.69;2074352;28;19929;-51
2022/09/28 04:40:04;;;;;;;;;;;;;;;20.46;58.28;97433.56;2072326;28;20103;-51
2022/09/28 04:41:05;;;;;;;;;;;;;;;20.46;58.17;97425.50;2075605;28;20731;-47
2022/09/28 04:42:09;;;;;;;;;;;;;;;20.44;58.14;97424.91;2074640;28;19975;-48
2022/09/28 04:43:09;;;;;;;;;;;;;;;20.45;58.07;97429.25;2074938;28;20007;-48
2022/09/28 04:44:11;;;;;;;;;;;;;;;20.45;58.06;97423.88;2075884;28;19929;-47
2022/09/28 04:45:11;;;;;;;;;;;;;;;20.45;58.43;97428.47;2076053;28;19924;-51
2022/09/28 04:46:13;;;;;;;;;;;;;;;20.45;58.22;97431.97;2075526;28;19925;-49
2022/09/28 04:47:14;;;;;;;;;;;;;;;20.45;58.54;97425.75;2076486;28;20353;-51
2022/09/28 04:48:15;;;;;;;;;;;;;;;20.47;58.09;97423.63;2073180;28;19921;-47
2022/09/28 04:49:16;;;;;;;;;;;;;;;20.47;58.24;97412.84;2076061;28;19931;-48
2022/09/28 04:50:17;;;;;;;;;;;;;;;20.47;58.18;97423.63;2074419;28;20144;-47
2022/09/28 04:51:19;;;;;;;;;;;;;;;20.46;58.11;97416.59;2071009;28;19925;-49
2022/09/28 04:52:21;;;;;;;;;;;;;;;20.45;58.43;97417.69;2076748;28;21316;-50
2022/09/28 04:53:21;;;;;;;;;;;;;;;20.45;58.04;97418.50;2073205;28;20005;-47
2022/09/28 04:54:23;;;;;;;;;;;;;;;20.45;57.98;97423.06;2074659;28;19932;-49
2022/09/28 04:55:23;;;;;;;;;;;;;;;20.46;58.30;97416.59;2074904;28;24604;-50
2022/09/28 04:56:25;;;;;;;;;;;;;;;20.46;58.47;97411.22;2077352;28;19921;-49
2022/09/28 04:57:25;;;;;;;;;;;;;;;20.44;58.22;97405.25;2074569;28;19978;-50
2022/09/28 04:58:27;;;;;;;;;;;;;;;20.45;58.09;97404.22;2075254;28;20424;-50
2022/09/28 04:59:29;;;;;;;;;;;;;;;20.45;58.10;97417.69;2073679;28;19925;-50
2022/09/28 05:00:34;;;;;;;;;;;;;;;20.45;58.12;97409.59;2074658;28;19928;-53
2022/09/28 05:01:36;;;;;;;;;;;;;;;20.44;58.24;97406.06;2074550;28;20341;-53
2022/09/28 05:02:37;;;;;;;;;;;;;;;20.45;58.09;97409.59;2079603;28;19924;-50
2022/09/28 05:03:39;;;;;;;;;;;;;;;20.46;58.12;97422.00;2075022;28;20272;-48
2022/09/28 05:04:40;;;;;;;;;;;;;;;20.44;58.32;97413.34;2077381;28;19928;-49
2022/09/28 05:05:43;;;;;;;;;;;;;;;20.43;58.38;97411.72;2074249;28;19935;-48
2022/09/28 05:06:46;;;;;;;;;;;;;;;20.43;58.30;97412.53;2078097;28;19947;-49
2022/09/28 05:07:47;;;;;;;;;;;;;;;20.43;58.00;97411.72;2074808;28;19931;-50
2022/09/28 05:08:48;;;;;;;;;;;;;;;20.44;58.46;97422.22;2075949;28;19921;-52
2022/09/28 05:09:49;;;;;;;;;;;;;;;20.43;58.23;97419.78;2072794;28;20085;-51
2022/09/28 05:10:56;;;;;;;;;;;;;;;20.44;58.15;97421.41;2074358;28;20022;-52
2022/09/28 05:11:58;;;;;;;;;;;;;;;20.43;58.29;97422.50;2071034;28;20537;-49
2022/09/28 05:13:00;;;;;;;;;;;;;;;20.44;58.21;97418.72;2073318;28;19925;-49
2022/09/28 05:14:01;;;;;;;;;;;;;;;20.43;58.23;97414.41;2074552;28;19929;-49
2022/09/28 05:15:02;;;;;;;;;;;;;;;20.41;58.06;97420.03;2071446;28;19928;-49
2022/09/28 05:16:04;;;;;;;;;;;;;;;20.42;58.29;97421.69;2074348;28;19928;-51
2022/09/28 05:17:04;;;;;;;;;;;;;;;20.40;58.39;97418.41;2071884;28;19929;-49
2022/09/28 05:18:06;;;;;;;;;;;;;;;20.42;58.27;97412.75;2074738;28;19925;-50
2022/09/28 05:19:07;;;;;;;;;;;;;;;20.41;58.21;97419.22;2072701;28;19924;-49
2022/09/28 05:20:09;;;;;;;;;;;;;;;20.42;58.14;97413.59;2071069;28;19932;-49
2022/09/28 05:21:10;;;;;;;;;;;;;;;20.44;58.28;97424.09;2073359;28;20015;-49
2022/09/28 05:22:13;;;;;;;;;;;;;;;20.45;58.46;97425.75;2074155;28;19971;-49
2022/09/28 05:23:14;;;;;;;;;;;;;;;20.45;58.04;97426.56;2072826;28;22168;-51
2022/09/28 05:24:16;;;;;;;;;;;;;;;20.45;58.17;97423.06;2073660;28;19925;-49
2022/09/28 05:25:17;;;;;;;;;;;;;;;20.44;58.07;97430.31;2072155;28;19928;-50
2022/09/28 05:26:18;;;;;;;;;;;;;;;20.41;58.10;97424.59;2073249;28;19929;-48
2022/09/28 05:27:19;;;;;;;;;;;;;;;20.43;58.37;97419.78;2074611;28;19967;-48
2022/09/28 05:28:24;;;;;;;;;;;;;;;20.42;58.15;97420.84;2072333;28;19929;-48
2022/09/28 05:29:24;;;;;;;;;;;;;;;20.42;58.34;97421.69;2072598;28;19925;-50
2022/09/28 05:30:26;;;;;;;;;;;;;;;20.41;58.30;97424.59;2073732;28;19925;-51
2022/09/28 05:31:26;;;;;;;;;;;;;;;20.41;58.39;97417.34;2074051;28;19983;-48